createdAt,value
2022-08-10T00:01:00.637Z,17.51
2022-08-10T00:06:05.818Z,17.47
2022-08-10T00:11:15.188Z,17.37
2022-08-10T00:16:21.861Z,17.43
2022-08-10T00:21:27.220Z,17.45
2022-08-10T00:27:52.570Z,16.84
2022-08-10T00:32:00.647Z,16.57
2022-08-10T00:37:05.630Z,16.21
2022-08-10T00:42:14.759Z,16.42
2022-08-10T00:47:35.839Z,16.08
2022-08-10T00:52:42.071Z,16.09
2022-08-10T00:57:55.236Z,16.09
2022-08-10T01:03:00.745Z,16.26
2022-08-10T01:08:23.625Z,15.97
2022-08-10T01:13:36.584Z,16.09
2022-08-10T01:18:50.540Z,15.96
2022-08-10T01:24:25.080Z,15.84
2022-08-10T01:29:56.852Z,15.40
2022-08-10T01:35:10.372Z,15.32
2022-08-10T01:40:18.343Z,15.41
2022-08-10T01:45:28.678Z,14.97
2022-08-10T01:50:59.531Z,15.38
2022-08-10T01:56:06.476Z,15.19
2022-08-10T02:01:18.949Z,15.33
2022-08-10T02:06:25.928Z,15.16
2022-08-10T02:12:05.572Z,14.83
2022-08-10T02:16:59.712Z,14.42
2022-08-10T02:22:35.271Z,15.06
2022-08-10T02:27:32.473Z,15.03
2022-08-10T02:32:41.913Z,14.78
2022-08-10T02:38:04.805Z,14.70
2022-08-10T02:45:29.521Z,14.93
2022-08-10T02:48:49.227Z,14.85
2022-08-10T02:53:59.943Z,14.58
2022-08-10T02:59:10.148Z,14.42
2022-08-10T03:04:55.117Z,14.74
2022-08-10T03:09:50.482Z,14.71
2022-08-10T03:14:57.056Z,14.68
2022-08-10T03:20:38.083Z,14.80
2022-08-10T03:25:32.479Z,14.88
2022-08-10T03:30:38.334Z,14.61
2022-08-10T03:36:43.365Z,14.50
2022-08-10T03:41:16.408Z,14.72
2022-08-10T03:46:25.113Z,14.65
2022-08-10T03:51:33.824Z,14.18
2022-08-10T03:56:40.830Z,14.10
2022-08-10T04:02:43.558Z,14.37
2022-08-10T04:07:14.890Z,14.51
2022-08-10T04:12:20.187Z,14.37
2022-08-10T04:18:03.975Z,14.06
2022-08-10T04:22:59.029Z,14.54
2022-08-10T04:28:05.871Z,14.70
2022-08-10T04:33:13.573Z,14.94
2022-08-10T04:38:22.272Z,15.80
2022-08-10T04:43:29.733Z,15.57
2022-08-10T04:48:43.325Z,15.92
2022-08-10T04:54:06.392Z,16.29
2022-08-10T04:59:13.924Z,17.61
2022-08-10T05:04:34.593Z,18.38
2022-08-10T05:10:01.226Z,18.54
2022-08-10T05:15:10.946Z,18.68
2022-08-10T05:20:16.151Z,18.96
2022-08-10T05:25:23.852Z,20.78
2022-08-10T05:30:28.992Z,23.25
2022-08-10T05:35:57.697Z,22.93
2022-08-10T05:41:03.215Z,23.17
2022-08-10T05:46:17.399Z,24.14
2022-08-10T05:51:27.634Z,24.75
2022-08-10T05:56:53.809Z,25.46
2022-08-10T06:02:33.779Z,25.50
2022-08-10T06:07:30.072Z,25.89
2022-08-10T06:12:55.179Z,27.33
2022-08-10T06:18:02.911Z,28.39
2022-08-10T06:23:09.766Z,29.20
2022-08-10T06:28:21.895Z,27.59
2022-08-10T06:33:31.258Z,28.00
2022-08-10T06:38:38.802Z,26.54
2022-08-10T06:43:55.467Z,27.66
2022-08-10T06:49:03.170Z,29.55
2022-08-10T06:54:14.622Z,30.08
2022-08-10T06:59:24.917Z,30.05
2022-08-10T07:04:34.546Z,30.56
2022-08-10T07:09:43.327Z,31.55
2022-08-10T07:14:53.504Z,32.06
2022-08-10T07:20:01.356Z,32.24
2022-08-10T07:25:12.165Z,30.48
2022-08-10T07:30:20.194Z,29.52
2022-08-10T07:35:28.376Z,28.62
2022-08-10T07:40:37.424Z,28.86
2022-08-10T07:45:45.366Z,29.74
2022-08-10T07:50:51.359Z,29.50
2022-08-10T07:56:01.883Z,29.71
2022-08-10T08:01:20.751Z,29.77
2022-08-10T08:06:26.357Z,29.57
2022-08-10T08:11:39.953Z,29.44
2022-08-10T08:16:56.527Z,29.35
2022-08-10T08:24:10.073Z,28.74
2022-08-10T08:27:39.823Z,29.65
2022-08-10T08:32:54.416Z,29.05
2022-08-10T08:38:30.471Z,28.50
2022-08-10T08:43:38.473Z,28.25
2022-08-10T08:49:09.641Z,28.06
2022-08-10T08:54:35.112Z,29.25
2022-08-10T09:00:01.864Z,29.00
2022-08-10T09:05:26.183Z,29.48
2022-08-10T09:10:42.497Z,30.02
2022-08-10T09:16:00.744Z,28.35
2022-08-10T09:21:16.214Z,28.07
2022-08-10T09:26:25.074Z,27.07
2022-08-10T09:31:39.284Z,26.31
2022-08-10T09:36:57.235Z,27.01
2022-08-10T09:42:14.874Z,26.82
2022-08-10T09:47:59.959Z,26.20
2022-08-10T09:53:12.266Z,26.18
2022-08-10T09:58:37.418Z,26.62
2022-08-10T10:03:55.454Z,26.66
2022-08-10T10:09:12.249Z,26.73
2022-08-10T10:14:28.664Z,26.90
2022-08-10T10:19:52.159Z,26.54
2022-08-10T10:25:20.601Z,27.10
2022-08-10T10:30:35.489Z,27.22
2022-08-10T10:35:53.264Z,27.46
2022-08-10T10:41:12.443Z,26.80
2022-08-10T10:46:35.594Z,26.95
2022-08-10T10:51:46.548Z,27.61
2022-08-10T10:57:09.468Z,28.30
2022-08-10T11:02:32.637Z,27.46
2022-08-10T11:07:50.162Z,28.17
2022-08-10T11:14:25.776Z,28.65
2022-08-10T11:18:59.538Z,29.13
2022-08-10T11:24:49.103Z,29.63
2022-08-10T11:29:51.174Z,28.57
2022-08-10T11:35:11.751Z,28.79
2022-08-10T11:40:24.877Z,28.86
2022-08-10T11:45:36.901Z,29.00
2022-08-10T11:50:52.851Z,27.51
2022-08-10T11:56:01.311Z,28.02
2022-08-10T12:01:20.599Z,27.66
2022-08-10T12:06:54.090Z,27.78
2022-08-10T12:11:56.474Z,27.52
2022-08-10T12:17:10.340Z,27.18
2022-08-10T12:22:22.150Z,27.43
2022-08-10T12:27:34.228Z,27.39
2022-08-10T12:32:46.612Z,27.96
2022-08-10T12:38:04.772Z,26.71
2022-08-10T12:44:04.346Z,26.48
2022-08-10T12:48:53.322Z,26.65
2022-08-10T12:54:10.822Z,27.59
2022-08-10T12:59:16.881Z,28.56
2022-08-10T13:04:42.729Z,28.63
2022-08-10T13:09:55.878Z,29.55
2022-08-10T13:15:45.694Z,28.54
2022-08-10T13:20:45.441Z,30.00
2022-08-10T13:25:54.501Z,28.87
2022-08-10T13:31:02.233Z,28.84
2022-08-10T13:36:12.732Z,28.08
2022-08-10T13:41:27.581Z,27.79
2022-08-10T13:46:34.297Z,28.07
2022-08-10T13:51:56.753Z,27.90
2022-08-10T13:57:03.475Z,27.55
2022-08-10T14:02:09.620Z,28.00
2022-08-10T14:07:22.732Z,27.79
2022-08-10T14:12:34.972Z,27.61
2022-08-10T14:17:45.017Z,27.90
2022-08-10T14:23:02.473Z,27.94
2022-08-10T14:28:09.379Z,27.67
2022-08-10T14:33:26.768Z,27.90
2022-08-10T14:38:41.404Z,27.79
2022-08-10T14:43:58.166Z,27.84
2022-08-10T14:49:25.308Z,27.48
2022-08-10T14:54:36.945Z,27.76
2022-08-10T15:00:22.463Z,27.42
2022-08-10T15:05:39.893Z,28.65
2022-08-10T15:10:51.418Z,28.53
2022-08-10T15:16:12.092Z,28.70
2022-08-10T15:21:24.713Z,28.45
2022-08-10T15:26:38.572Z,29.05
2022-08-10T15:32:09.366Z,28.78
2022-08-10T15:37:40.484Z,28.39
2022-08-10T15:42:58.378Z,28.24
2022-08-10T15:48:08.673Z,28.14
2022-08-10T15:53:19.304Z,28.28
2022-08-10T15:58:40.122Z,27.62
2022-08-10T16:03:54.693Z,27.30
2022-08-10T16:10:26.537Z,27.28
2022-08-10T16:14:41.714Z,27.00
2022-08-10T16:19:56.252Z,27.06
2022-08-10T16:25:18.234Z,27.23
2022-08-10T16:30:26.149Z,27.17
2022-08-10T16:35:36.745Z,27.33
2022-08-10T16:40:43.981Z,27.22
2022-08-10T16:45:58.260Z,26.93
2022-08-10T16:51:05.720Z,27.27
2022-08-10T16:56:14.994Z,27.87
2022-08-10T17:01:32.980Z,27.98
2022-08-10T17:06:46.941Z,27.57
2022-08-10T17:11:56.629Z,27.33
2022-08-10T17:17:09.191Z,27.34
2022-08-10T17:22:17.762Z,27.02
2022-08-10T17:28:04.598Z,26.92
2022-08-10T17:32:59.380Z,26.76
2022-08-10T17:38:09.479Z,26.57
2022-08-10T17:43:58.237Z,26.42
2022-08-10T17:48:45.224Z,26.22
2022-08-10T17:53:54.038Z,26.24
2022-08-10T17:59:09.737Z,26.13
2022-08-10T18:04:23.986Z,25.87
2022-08-10T18:09:35.277Z,25.84
2022-08-10T18:14:41.432Z,25.67
2022-08-10T18:19:55.809Z,25.51
2022-08-10T18:25:02.820Z,25.33
2022-08-10T18:30:10.308Z,25.15
2022-08-10T18:35:20.037Z,25.01
2022-08-10T18:40:36.004Z,24.87
2022-08-10T18:45:46.526Z,24.60
2022-08-10T18:50:57.524Z,24.46
2022-08-10T18:56:16.998Z,24.33
2022-08-10T19:01:42.059Z,24.41
2022-08-10T19:07:11.081Z,24.28
2022-08-10T19:12:40.753Z,24.14
2022-08-10T19:18:06.206Z,23.84
2022-08-10T19:23:26.397Z,23.63
2022-08-10T19:28:38.645Z,23.35
2022-08-10T19:33:52.945Z,23.30
2022-08-10T19:39:29.011Z,23.13
2022-08-10T19:44:43.767Z,23.16
2022-08-10T19:49:57.989Z,23.19
2022-08-10T19:55:15.377Z,23.01
2022-08-10T20:00:27.072Z,22.31
2022-08-10T20:05:36.367Z,21.93
2022-08-10T20:10:52.452Z,21.94
2022-08-10T20:16:01.634Z,21.82
2022-08-10T20:21:14.638Z,21.67
2022-08-10T20:26:25.769Z,21.54
2022-08-10T20:31:41.926Z,21.57
2022-08-10T20:36:57.855Z,21.39
2022-08-10T20:42:11.634Z,21.22
2022-08-10T20:47:22.511Z,21.02
2022-08-10T20:52:28.527Z,21.17
2022-08-10T20:57:54.124Z,20.92
2022-08-10T21:03:32.964Z,20.63
2022-08-10T21:08:53.049Z,20.35
2022-08-10T21:14:14.873Z,20.37
2022-08-10T21:19:36.036Z,20.17
2022-08-10T21:24:47.019Z,20.35
2022-08-10T21:30:08.958Z,20.76
2022-08-10T21:35:37.846Z,20.48
2022-08-10T21:41:57.720Z,19.98
2022-08-10T21:47:38.105Z,20.09
2022-08-10T21:53:04.206Z,19.50
2022-08-10T21:58:27.977Z,19.40
2022-08-10T22:03:48.060Z,19.26
2022-08-10T22:09:17.991Z,19.37
2022-08-10T22:14:41.246Z,19.72
2022-08-10T22:20:07.218Z,19.04
2022-08-10T22:25:42.274Z,18.73
2022-08-10T22:37:06.311Z,18.28
2022-08-10T22:42:32.613Z,18.51
2022-08-10T22:48:14.178Z,18.22
2022-08-10T22:53:47.898Z,18.40
2022-08-10T22:58:52.836Z,18.35
2022-08-10T23:03:59.253Z,18.17
2022-08-10T23:09:09.496Z,18.08
2022-08-10T23:14:18.524Z,18.73
2022-08-10T23:19:24.773Z,18.00
2022-08-10T23:24:37.984Z,18.15
2022-08-10T23:30:09.523Z,18.48
2022-08-10T23:36:32.443Z,18.11
2022-08-10T23:40:48.077Z,17.43
2022-08-10T23:45:56.527Z,17.14
2022-08-10T23:51:16.051Z,17.33
2022-08-10T23:56:27.836Z,17.16
